Time,TemperatureF,DewpointF,PressureIn,WindDirection,WindDirectionDegrees,WindSpeedMPH,WindSpeedGustMPH,Humidity,HourlyPrecipIn,Conditions,Clouds,dailyrainin,SoftwareType,DateUTC
2013-12-01 00:01:00,29.7,0.0,30.39,NNW,338,1.0,6.0,0,0.00,,,0.00,Weather View 32 v70,2013-12-01 05:01:00,
2013-12-01 00:03:00,29.5,0.0,30.39,NNW,338,2.0,6.0,0,0.00,,,0.00,Weather View 32 v70,2013-12-01 05:03:00,
2013-12-01 00:08:00,29.5,0.0,30.38,NNW,338,0.0,5.0,0,0.00,,,0.00,Weather View 32 v70,2013-12-01 05:08:00,
2013-12-01 00:13:00,29.5,0.0,30.39,NNW,338,0.0,5.0,0,0.00,,,0.00,Weather View 32 v70,2013-12-01 05:13:00,
2013-12-01 00:18:00,29.1,0.0,30.39,NNW,338,0.0,5.0,0,0.00,,,0.00,Weather View 32 v70,2013-12-01 05:18:00,
2013-12-01 00:23:00,28.9,0.0,30.38,NNW,338,0.0,5.0,0,0.00,,,0.00,Weather View 32 v70,2013-12-01 05:23:00,
2013-12-01 00:28:00,28.8,0.0,30.36,NNW,338,0.0,4.0,0,0.00,,,0.00,Weather View 32 v70,2013-12-01 05:28:00,
2013-12-01 00:33:00,28.9,0.0,30.36,NNW,338,0.0,4.0,0,0.00,,,0.00,Weather View 32 v70,2013-12-01 05:33:00,
2013-12-01 00:38:00,29.1,0.0,30.37,NNW,338,2.0,4.0,0,0.00,,,0.00,Weather View 32 v70,2013-12-01 05:38:00,
2013-12-01 00:43:00,28.9,0.0,30.37,WNW,293,1.0,4.0,0,0.00,,,0.00,Weather View 32 v70,2013-12-01 05:43:00,
2013-12-01 00:48:00,28.9,0.0,30.36,WNW,293,0.0,4.0,0,0.00,,,0.00,Weather View 32 v70,2013-12-01 05:48:00,
2013-12-01 00:53:00,29.1,0.0,30.36,WNW,293,0.0,4.0,0,0.00,,,0.00,Weather View 32 v70,2013-12-01 05:53:00,
2013-12-01 00:58:00,28.9,0.0,30.36,WNW,293,0.0,4.0,0,0.00,,,0.00,Weather View 32 v70,2013-12-01 05:58:00,
2013-12-01 01:03:00,29.1,0.0,30.36,NW,315,0.0,3.0,0,0.00,,,0.00,Weather View 32 v70,2013-12-01 06:03:00,
2013-12-01 01:08:00,28.9,0.0,30.36,NW,315,0.0,3.0,0,0.00,,,0.00,Weather View 32 v70,2013-12-01 06:08:00,
2013-12-01 01:13:00,28.9,0.0,30.36,NW,315,2.0,3.0,0,0.00,,,0.00,Weather View 32 v70,2013-12-01 06:13:00,
2013-12-01 01:18:00,28.8,0.0,30.35,NW,315,0.0,3.0,0,0.00,,,0.00,Weather View 32 v70,2013-12-01 06:18:00,
2013-12-01 01:23:00,28.6,0.0,30.35,NNW,338,1.0,4.0,0,0.00,,,0.00,Weather View 32 v70,2013-12-01 06:23:00,
2013-12-01 01:28:00,28.8,0.0,30.35,NW,315,0.0,4.0,0,0.00,,,0.00,Weather View 32 v70,2013-12-01 06:28:00,
2013-12-01 01:33:00,28.8,0.0,30.33,NW,315,0.0,4.0,0,0.00,,,0.00,Weather View 32 v70,2013-12-01 06:33:00,
2013-12-01 01:38:00,28.8,0.0,30.35,NW,315,0.0,4.0,0,0.00,,,0.00,Weather View 32 v70,2013-12-01 06:38:00,
2013-12-01 01:43:00,28.8,0.0,30.35,NW,315,1.0,4.0,0,0.00,,,0.00,Weather View 32 v70,2013-12-01 06:43:00,
2013-12-01 01:48:00,28.8,0.0,30.36,NW,315,0.0,4.0,0,0.00,,,0.00,Weather View 32 v70,2013-12-01 06:48:00,
2013-12-01 01:53:00,28.2,0.0,30.33,NW,315,0.0,4.0,0,0.00,,,0.00,Weather View 32 v70,2013-12-01 06:53:00,
2013-12-01 01:58:00,28.8,0.0,30.35,NW,315,0.0,4.0,0,0.00,,,0.00,Weather View 32 v70,2013-12-01 06:58:00,
2013-12-01 02:03:00,28.6,0.0,30.35,NW,315,0.0,4.0,0,0.00,,,0.00,Weather View 32 v70,2013-12-01 07:03:00,
2013-12-01 02:08:00,28.4,0.0,30.34,NW,315,0.0,4.0,0,0.00,,,0.00,Weather View 32 v70,2013-12-01 07:08:00,
2013-12-01 02:13:00,28.4,0.0,30.35,NW,315,0.0,4.0,0,0.00,,,0.00,Weather View 32 v70,2013-12-01 07:13:00,
2013-12-01 02:18:00,28.2,0.0,30.35,NW,315,0.0,4.0,0,0.00,,,0.00,Weather View 32 v70,2013-12-01 07:18:00,
2013-12-01 02:23:00,28.2,0.0,30.35,NW,315,0.0,3.0,0,0.00,,,0.00,Weather View 32 v70,2013-12-01 07:23:00,
2013-12-01 02:28:00,27.9,0.0,30.35,NW,315,0.0,3.0,0,0.00,,,0.00,Weather View 32 v70,2013-12-01 07:28:00,
2013-12-01 02:33:00,27.9,0.0,30.34,NW,315,0.0,3.0,0,0.00,,,0.00,Weather View 32 v70,2013-12-01 07:33:00,
2013-12-01 02:38:00,27.9,0.0,30.35,NW,315,0.0,2.0,0,0.00,,,0.00,Weather View 32 v70,2013-12-01 07:38:00,
2013-12-01 02:43:00,27.7,0.0,30.34,NW,315,0.0,2.0,0,0.00,,,0.00,Weather View 32 v70,2013-12-01 07:43:00,
2013-12-01 02:48:00,27.7,0.0,30.34,NW,315,0.0,1.0,0,0.00,,,0.00,Weather View 32 v70,2013-12-01 07:48:00,
2013-12-01 02:53:00,27.7,0.0,30.34,NW,315,0.0,1.0,0,0.00,,,0.00,Weather View 32 v70,2013-12-01 07:53:00,
2013-12-01 02:58:00,27.9,0.0,30.34,NW,315,0.0,1.0,0,0.00,,,0.00,Weather View 32 v70,2013-12-01 07:58:00,
2013-12-01 03:03:00,27.5,0.0,30.32,NW,315,0.0,1.0,0,0.00,,,0.00,Weather View 32 v70,2013-12-01 08:03:00,
2013-12-01 03:08:00,27.5,0.0,30.31,NW,315,0.0,1.0,0,0.00,,,0.00,Weather View 32 v70,2013-12-01 08:08:00,
2013-12-01 03:13:00,27.7,0.0,30.33,NW,315,0.0,2.0,0,0.00,,,0.00,Weather View 32 v70,2013-12-01 08:13:00,
2013-12-01 03:18:00,27.5,0.0,30.31,NW,315,0.0,2.0,0,0.00,,,0.00,Weather View 32 v70,2013-12-01 08:18:00,
2013-12-01 03:23:00,27.5,0.0,30.32,NW,315,2.0,2.0,0,0.00,,,0.00,Weather View 32 v70,2013-12-01 08:23:00,
2013-12-01 03:28:00,27.5,0.0,30.32,NW,315,0.0,3.0,0,0.00,,,0.00,Weather View 32 v70,2013-12-01 08:28:00,
2013-12-01 03:33:00,27.5,0.0,30.31,NW,315,0.0,3.0,0,0.00,,,0.00,Weather View 32 v70,2013-12-01 08:33:00,
2013-12-01 03:38:00,27.5,0.0,30.32,WNW,293,0.0,3.0,0,0.00,,,0.00,Weather View 32 v70,2013-12-01 08:38:00,
2013-12-01 03:43:00,27.3,0.0,30.31,NW,315,2.0,3.0,0,0.00,,,0.00,Weather View 32 v70,2013-12-01 08:43:00,
2013-12-01 03:48:00,27.3,0.0,30.31,NNW,338,0.0,4.0,0,0.00,,,0.00,Weather View 32 v70,2013-12-01 08:48:00,
2013-12-01 03:53:00,27.7,0.0,30.31,NW,315,0.0,4.0,0,0.00,,,0.00,Weather View 32 v70,2013-12-01 08:53:00,
2013-12-01 03:58:00,27.3,0.0,30.29,NW,315,0.0,4.0,0,0.00,,,0.00,Weather View 32 v70,2013-12-01 08:58:00,
2013-12-01 04:01:00,27.3,0.0,30.29,NW,315,0.0,4.0,0,0.00,,,0.00,Weather View 32 v70,2013-12-01 09:01:00,
2013-12-01 04:06:00,27.1,0.0,30.29,NW,315,0.0,4.0,0,0.00,,,0.00,Weather View 32 v70,2013-12-01 09:06:00,
2013-12-01 04:11:00,27.1,0.0,30.29,NW,315,0.0,4.0,0,0.00,,,0.00,Weather View 32 v70,2013-12-01 09:11:00,
2013-12-01 04:16:00,27.1,0.0,30.28,NW,315,0.0,4.0,0,0.00,,,0.00,Weather View 32 v70,2013-12-01 09:16:00,
2013-12-01 04:21:00,27.3,0.0,30.30,NW,315,0.0,4.0,0,0.00,,,0.00,Weather View 32 v70,2013-12-01 09:21:00,
2013-12-01 04:26:00,27.5,0.0,30.30,NW,315,0.0,4.0,0,0.00,,,0.00,Weather View 32 v70,2013-12-01 09:26:00,
2013-12-01 04:31:00,27.1,0.0,30.30,WNW,293,0.0,4.0,0,0.00,,,0.00,Weather View 32 v70,2013-12-01 09:31:00,
2013-12-01 04:36:00,26.8,0.0,30.29,WNW,293,0.0,4.0,0,0.00,,,0.00,Weather View 32 v70,2013-12-01 09:36:00,
2013-12-01 04:41:00,27.0,0.0,30.29,WNW,293,0.0,4.0,0,0.00,,,0.00,Weather View 32 v70,2013-12-01 09:41:00,
2013-12-01 04:46:00,27.0,0.0,30.28,WNW,293,0.0,4.0,0,0.00,,,0.00,Weather View 32 v70,2013-12-01 09:46:00,
2013-12-01 04:51:00,27.0,0.0,30.29,WNW,293,0.0,4.0,0,0.00,,,0.00,Weather View 32 v70,2013-12-01 09:51:00,
2013-12-01 04:56:00,26.8,0.0,30.29,WNW,293,0.0,1.0,0,0.00,,,0.00,Weather View 32 v70,2013-12-01 09:56:00,
2013-12-01 05:01:00,26.8,0.0,30.28,WNW,293,0.0,1.0,0,0.00,,,0.00,Weather View 32 v70,2013-12-01 10:01:00,
2013-12-01 05:06:00,26.8,0.0,30.29,WNW,293,1.0,1.0,0,0.00,,,0.00,Weather View 32 v70,2013-12-01 10:06:00,
2013-12-01 05:11:00,26.8,0.0,30.29,WNW,293,0.0,2.0,0,0.00,,,0.00,Weather View 32 v70,2013-12-01 10:11:00,
2013-12-01 05:16:00,26.4,0.0,30.29,WNW,293,0.0,2.0,0,0.00,,,0.00,Weather View 32 v70,2013-12-01 10:16:00,
2013-12-01 05:21:00,26.4,0.0,30.29,WNW,293,0.0,2.0,0,0.00,,,0.00,Weather View 32 v70,2013-12-01 10:21:00,
2013-12-01 05:26:00,26.4,0.0,30.30,WNW,293,0.0,2.0,0,0.00,,,0.00,Weather View 32 v70,2013-12-01 10:26:00,
2013-12-01 05:31:00,26.2,0.0,30.29,WNW,293,0.0,2.0,0,0.00,,,0.00,Weather View 32 v70,2013-12-01 10:31:00,
2013-12-01 05:36:00,26.2,0.0,30.30,WNW,293,0.0,2.0,0,0.00,,,0.00,Weather View 32 v70,2013-12-01 10:36:00,
2013-12-01 05:41:00,26.1,0.0,30.30,WNW,293,0.0,2.0,0,0.00,,,0.00,Weather View 32 v70,2013-12-01 10:41:00,
2013-12-01 05:46:00,26.2,0.0,30.30,WNW,293,0.0,2.0,0,0.00,,,0.00,Weather View 32 v70,2013-12-01 10:46:00,
2013-12-01 05:51:00,26.2,0.0,30.30,WNW,293,0.0,2.0,0,0.00,,,0.00,Weather View 32 v70,2013-12-01 10:51:00,
2013-12-01 05:56:00,26.2,0.0,30.30,WNW,293,0.0,2.0,0,0.00,,,0.00,Weather View 32 v70,2013-12-01 10:56:00,
2013-12-01 06:01:00,26.2,0.0,30.30,WNW,293,0.0,2.0,0,0.00,,,0.00,Weather View 32 v70,2013-12-01 11:01:00,
2013-12-01 06:06:00,26.2,0.0,30.30,WNW,293,0.0,2.0,0,0.00,,,0.00,Weather View 32 v70,2013-12-01 11:06:00,
2013-12-01 06:11:00,26.4,0.0,30.29,WNW,293,0.0,0.0,0,0.00,,,0.00,Weather View 32 v70,2013-12-01 11:11:00,
2013-12-01 06:16:00,26.1,0.0,30.28,WNW,293,0.0,0.0,0,0.00,,,0.00,Weather View 32 v70,2013-12-01 11:16:00,
2013-12-01 06:21:00,25.7,0.0,30.28,WNW,293,0.0,0.0,0,0.00,,,0.00,Weather View 32 v70,2013-12-01 11:21:00,
2013-12-01 06:26:00,25.7,0.0,30.28,WNW,293,0.0,0.0,0,0.00,,,0.00,Weather View 32 v70,2013-12-01 11:26:00,
2013-12-01 06:31:00,25.7,0.0,30.29,WNW,293,0.0,0.0,0,0.00,,,0.00,Weather View 32 v70,2013-12-01 11:31:00,
2013-12-01 06:36:00,25.7,0.0,30.28,WNW,293,0.0,0.0,0,0.00,,,0.00,Weather View 32 v70,2013-12-01 11:36:00,
2013-12-01 06:41:00,25.5,0.0,30.28,WNW,293,0.0,0.0,0,0.00,,,0.00,Weather View 32 v70,2013-12-01 11:41:00,
2013-12-01 06:46:00,25.7,0.0,30.29,WNW,293,0.0,0.0,0,0.00,,,0.00,Weather View 32 v70,2013-12-01 11:46:00,
2013-12-01 06:51:00,25.7,0.0,30.27,WNW,293,0.0,0.0,0,0.00,,,0.00,Weather View 32 v70,2013-12-01 11:51:00,
2013-12-01 06:56:00,25.7,0.0,30.28,WNW,293,0.0,0.0,0,0.00,,,0.00,Weather View 32 v70,2013-12-01 11:56:00,
2013-12-01 07:01:00,25.7,0.0,30.28,WNW,293,0.0,0.0,0,0.00,,,0.00,Weather View 32 v70,2013-12-01 12:01:00,
2013-12-01 07:06:00,25.7,0.0,30.28,WNW,293,0.0,0.0,0,0.00,,,0.00,Weather View 32 v70,2013-12-01 12:06:00,
2013-12-01 07:11:00,25.7,0.0,30.27,WNW,293,0.0,0.0,0,0.00,,,0.00,Weather View 32 v70,2013-12-01 12:11:00,
2013-12-01 07:16:00,25.7,0.0,30.28,WNW,293,0.0,0.0,0,0.00,,,0.00,Weather View 32 v70,2013-12-01 12:16:00,
2013-12-01 07:21:00,26.1,0.0,30.28,WNW,293,0.0,1.0,0,0.00,,,0.00,Weather View 32 v70,2013-12-01 12:21:00,
2013-12-01 07:26:00,26.2,0.0,30.28,WNW,293,0.0,1.0,0,0.00,,,0.00,Weather View 32 v70,2013-12-01 12:26:00,
2013-12-01 07:31:00,26.4,0.0,30.28,WNW,293,0.0,1.0,0,0.00,,,0.00,Weather View 32 v70,2013-12-01 12:31:00,
2013-12-01 07:36:00,26.8,0.0,30.28,WNW,293,0.0,1.0,0,0.00,,,0.00,Weather View 32 v70,2013-12-01 12:36:00,
2013-12-01 07:41:00,26.8,0.0,30.28,WNW,293,0.0,1.0,0,0.00,,,0.00,Weather View 32 v70,2013-12-01 12:41:00,
2013-12-01 07:46:00,27.0,0.0,30.28,WNW,293,0.0,1.0,0,0.00,,,0.00,Weather View 32 v70,2013-12-01 12:46:00,
2013-12-01 07:51:00,27.0,0.0,30.27,WNW,293,0.0,1.0,0,0.00,,,0.00,Weather View 32 v70,2013-12-01 12:51:00,
2013-12-01 07:56:00,27.3,0.0,30.27,WNW,293,0.0,2.0,0,0.00,,,0.00,Weather View 32 v70,2013-12-01 12:56:00,
2013-12-01 08:01:00,27.3,0.0,30.27,WNW,293,0.0,2.0,0,0.00,,,0.00,Weather View 32 v70,2013-12-01 13:01:00,
2013-12-01 08:06:00,27.5,0.0,30.26,WNW,293,0.0,2.0,0,0.00,,,0.00,Weather View 32 v70,2013-12-01 13:06:00,
2013-12-01 08:11:00,28.0,0.0,30.27,WNW,293,1.0,2.0,0,0.00,,,0.00,Weather View 32 v70,2013-12-01 13:11:00,
2013-12-01 08:16:00,28.2,0.0,30.27,WNW,293,0.0,2.0,0,0.00,,,0.00,Weather View 32 v70,2013-12-01 13:16:00,
2013-12-01 08:21:00,28.9,0.0,30.28,WNW,293,0.0,2.0,0,0.00,,,0.00,Weather View 32 v70,2013-12-01 13:21:00,
2013-12-01 08:26:00,29.7,0.0,30.28,WNW,293,0.0,2.0,0,0.00,,,0.00,Weather View 32 v70,2013-12-01 13:26:00,
2013-12-01 08:31:00,30.0,0.0,30.28,WNW,293,0.0,2.0,0,0.00,,,0.00,Weather View 32 v70,2013-12-01 13:31:00,
2013-12-01 08:36:00,30.7,0.0,30.29,WNW,293,0.0,2.0,0,0.00,,,0.00,Weather View 32 v70,2013-12-01 13:36:00,
2013-12-01 08:41:00,31.1,0.0,30.28,WNW,293,0.0,2.0,0,0.00,,,0.00,Weather View 32 v70,2013-12-01 13:41:00,
2013-12-01 08:46:00,31.8,0.0,30.28,WNW,293,0.0,2.0,0,0.00,,,0.00,Weather View 32 v70,2013-12-01 13:46:00,
2013-12-01 08:51:00,32.9,0.0,30.28,WNW,293,0.0,2.0,0,0.00,,,0.00,Weather View 32 v70,2013-12-01 13:51:00,
2013-12-01 08:56:00,33.6,0.0,30.29,WNW,293,0.0,2.0,0,0.00,,,0.00,Weather View 32 v70,2013-12-01 13:56:00,
2013-12-01 09:01:00,33.8,0.0,30.29,WNW,293,0.0,2.0,0,0.00,,,0.00,Weather View 32 v70,2013-12-01 14:01:00,
2013-12-01 09:06:00,34.3,0.0,30.19,North,0,0.0,2.0,0,0.00,,,0.00,Weather View 32 v70,2013-12-01 14:06:00,
2013-12-01 09:11:00,34.7,0.0,30.20,West,270,0.0,3.0,0,0.00,,,0.00,Weather View 32 v70,2013-12-01 14:11:00,
2013-12-01 09:16:00,35.4,0.0,30.20,West,270,2.0,3.0,0,0.00,,,0.00,Weather View 32 v70,2013-12-01 14:16:00,
2013-12-01 09:21:00,36.0,0.0,30.19,North,0,2.0,4.0,0,0.00,,,0.00,Weather View 32 v70,2013-12-01 14:21:00,
2013-12-01 09:26:00,36.7,0.0,30.23,West,270,1.0,4.0,0,0.00,,,0.00,Weather View 32 v70,2013-12-01 14:26:00,
2013-12-01 09:31:00,38.1,0.0,30.20,North,0,1.0,4.0,0,0.00,,,0.00,Weather View 32 v70,2013-12-01 14:31:00,
2013-12-01 09:36:00,39.9,0.0,30.20,West,270,1.0,4.0,0,0.00,,,0.00,Weather View 32 v70,2013-12-01 14:36:00,
2013-12-01 09:41:00,41.2,0.0,30.20,West,270,2.0,4.0,0,0.00,,,0.00,Weather View 32 v70,2013-12-01 14:41:00,
2013-12-01 09:46:00,42.4,0.0,30.20,West,270,0.0,4.0,0,0.00,,,0.00,Weather View 32 v70,2013-12-01 14:46:00,
2013-12-01 09:51:00,43.5,0.0,30.20,West,270,1.0,4.0,0,0.00,,,0.00,Weather View 32 v70,2013-12-01 14:51:00,
2013-12-01 09:56:00,44.4,0.0,30.20,North,0,0.0,4.0,0,0.00,,,0.00,Weather View 32 v70,2013-12-01 14:56:00,
2013-12-01 10:01:00,45.3,0.0,30.19,North,0,2.0,4.0,0,0.00,,,0.00,Weather View 32 v70,2013-12-01 15:01:00,
2013-12-01 10:06:00,46.0,0.0,30.18,North,0,2.0,5.0,0,0.00,,,0.00,Weather View 32 v70,2013-12-01 15:06:00,
2013-12-01 10:11:00,46.4,0.0,30.19,West,270,0.0,5.0,0,0.00,,,0.00,Weather View 32 v70,2013-12-01 15:11:00,
2013-12-01 10:16:00,46.4,0.0,30.26,WNW,293,0.0,5.0,0,0.00,,,0.00,Weather View 32 v70,2013-12-01 15:16:00,
2013-12-01 10:21:00,47.5,0.0,30.18,North,0,0.0,5.0,0,0.00,,,0.00,Weather View 32 v70,2013-12-01 15:21:00,
2013-12-01 10:26:00,48.0,0.0,30.19,West,270,0.0,5.0,0,0.00,,,0.00,Weather View 32 v70,2013-12-01 15:26:00,
2013-12-01 10:31:00,48.9,0.0,30.18,North,0,3.0,5.0,0,0.00,,,0.00,Weather View 32 v70,2013-12-01 15:31:00,
2013-12-01 10:36:00,49.5,0.0,30.17,North,0,2.0,5.0,0,0.00,,,0.00,Weather View 32 v70,2013-12-01 15:36:00,
2013-12-01 10:41:00,49.6,0.0,30.17,North,0,5.0,6.0,0,0.00,,,0.00,Weather View 32 v70,2013-12-01 15:41:00,
2013-12-01 10:46:00,50.4,0.0,30.21,West,270,0.0,6.0,0,0.00,,,0.00,Weather View 32 v70,2013-12-01 15:46:00,
2013-12-01 10:51:00,50.5,0.0,30.18,West,270,0.0,8.0,0,0.00,,,0.00,Weather View 32 v70,2013-12-01 15:51:00,
2013-12-01 10:56:00,51.1,0.0,30.18,WNW,293,3.0,8.0,0,0.00,,,0.00,Weather View 32 v70,2013-12-01 15:56:00,
2013-12-01 11:01:00,50.5,0.0,30.19,WNW,293,0.0,8.0,0,0.00,,,0.00,Weather View 32 v70,2013-12-01 16:01:00,
2013-12-01 11:06:00,50.7,0.0,30.17,North,0,4.0,8.0,0,0.00,,,0.00,Weather View 32 v70,2013-12-01 16:06:00,
2013-12-01 11:11:00,50.5,0.0,30.17,North,0,1.0,8.0,0,0.00,,,0.00,Weather View 32 v70,2013-12-01 16:11:00,
2013-12-01 11:16:00,50.7,0.0,30.18,West,270,3.0,8.0,0,0.00,,,0.00,Weather View 32 v70,2013-12-01 16:16:00,
2013-12-01 11:21:00,50.9,0.0,30.17,WNW,293,4.0,9.0,0,0.00,,,0.00,Weather View 32 v70,2013-12-01 16:21:00,
2013-12-01 11:26:00,51.1,0.0,30.15,West,270,1.0,9.0,0,0.00,,,0.00,Weather View 32 v70,2013-12-01 16:26:00,
2013-12-01 11:31:00,51.1,0.0,30.16,West,270,1.0,9.0,0,0.00,,,0.00,Weather View 32 v70,2013-12-01 16:31:00,
2013-12-01 11:36:00,51.3,0.0,30.21,WNW,293,2.0,9.0,0,0.00,,,0.00,Weather View 32 v70,2013-12-01 16:36:00,
2013-12-01 11:41:00,51.4,0.0,30.19,WNW,293,6.0,9.0,0,0.00,,,0.00,Weather View 32 v70,2013-12-01 16:41:00,
2013-12-01 11:46:00,51.8,0.0,30.18,WNW,293,3.0,9.0,0,0.00,,,0.00,Weather View 32 v70,2013-12-01 16:46:00,
2013-12-01 11:51:00,51.8,0.0,30.21,WNW,293,1.0,9.0,0,0.00,,,0.00,Weather View 32 v70,2013-12-01 16:51:00,
2013-12-01 11:56:00,52.9,0.0,30.13,North,0,2.0,9.0,0,0.00,,,0.00,Weather View 32 v70,2013-12-01 16:56:00,
2013-12-01 12:01:00,54.0,0.0,30.12,North,0,3.0,9.0,0,0.00,,,0.00,Weather View 32 v70,2013-12-01 17:01:00,
2013-12-01 12:06:00,54.3,0.0,30.11,West,270,0.0,9.0,0,0.00,,,0.00,Weather View 32 v70,2013-12-01 17:06:00,
2013-12-01 12:11:00,54.9,0.0,30.13,North,0,3.0,9.0,0,0.00,,,0.00,Weather View 32 v70,2013-12-01 17:11:00,
2013-12-01 12:16:00,54.9,0.0,30.13,West,270,3.0,9.0,0,0.00,,,0.00,Weather View 32 v70,2013-12-01 17:16:00,
2013-12-01 12:21:00,55.0,0.0,30.13,West,270,1.0,7.0,0,0.00,,,0.00,Weather View 32 v70,2013-12-01 17:21:00,
2013-12-01 12:26:00,54.5,0.0,30.19,WNW,293,0.0,7.0,0,0.00,,,0.00,Weather View 32 v70,2013-12-01 17:26:00,
2013-12-01 12:31:00,54.9,0.0,30.12,North,0,3.0,13.0,0,0.00,,,0.00,Weather View 32 v70,2013-12-01 17:31:00,
2013-12-01 12:36:00,55.6,0.0,30.10,SE,135,1.0,10.0,0,0.00,,,0.00,Weather View 32 v70,2013-12-01 17:36:00,
2013-12-01 12:41:00,55.8,0.0,30.13,WNW,293,1.0,13.0,0,0.00,,,0.00,Weather View 32 v70,2013-12-01 17:41:00,
2013-12-01 12:46:00,55.6,0.0,30.13,WNW,293,1.0,7.0,0,0.00,,,0.00,Weather View 32 v70,2013-12-01 17:46:00,
2013-12-01 12:51:00,56.1,0.0,30.14,West,270,0.0,7.0,0,0.00,,,0.00,Weather View 32 v70,2013-12-01 17:51:00,
2013-12-01 12:56:00,56.1,0.0,30.09,West,270,0.0,6.0,0,0.00,,,0.00,Weather View 32 v70,2013-12-01 17:56:00,
2013-12-01 13:01:00,56.5,0.0,30.11,ESE,113,2.0,6.0,0,0.00,,,0.00,Weather View 32 v70,2013-12-01 18:01:00,
2013-12-01 13:06:00,55.9,0.0,30.12,West,270,0.0,6.0,0,0.00,,,0.00,Weather View 32 v70,2013-12-01 18:06:00,
2013-12-01 13:11:00,56.1,0.0,30.10,West,270,0.0,6.0,0,0.00,,,0.00,Weather View 32 v70,2013-12-01 18:11:00,
2013-12-01 13:16:00,56.1,0.0,30.12,WNW,293,0.0,6.0,0,0.00,,,0.00,Weather View 32 v70,2013-12-01 18:16:00,
2013-12-01 13:21:00,56.1,0.0,30.07,WNW,293,2.0,7.0,0,0.00,,,0.00,Weather View 32 v70,2013-12-01 18:21:00,
2013-12-01 13:26:00,55.9,0.0,30.06,North,0,3.0,7.0,0,0.00,,,0.00,Weather View 32 v70,2013-12-01 18:26:00,
2013-12-01 13:31:00,55.9,0.0,30.06,West,270,0.0,7.0,0,0.00,,,0.00,Weather View 32 v70,2013-12-01 18:31:00,
2013-12-01 13:36:00,55.8,0.0,30.10,WNW,293,0.0,7.0,0,0.00,,,0.00,Weather View 32 v70,2013-12-01 18:36:00,
2013-12-01 13:41:00,56.3,0.0,30.06,West,270,0.0,10.0,0,0.00,,,0.00,Weather View 32 v70,2013-12-01 18:41:00,
2013-12-01 13:46:00,56.5,0.0,30.06,West,270,1.0,9.0,0,0.00,,,0.00,Weather View 32 v70,2013-12-01 18:46:00,
2013-12-01 13:51:00,56.3,0.0,30.07,SE,135,1.0,7.0,0,0.00,,,0.00,Weather View 32 v70,2013-12-01 18:51:00,
2013-12-01 13:56:00,55.8,0.0,30.08,West,270,0.0,7.0,0,0.00,,,0.00,Weather View 32 v70,2013-12-01 18:56:00,
2013-12-01 14:01:00,56.3,0.0,30.06,North,0,3.0,7.0,0,0.00,,,0.00,Weather View 32 v70,2013-12-01 19:01:00,
2013-12-01 14:06:00,55.9,0.0,30.03,West,270,0.0,9.0,0,0.00,,,0.00,Weather View 32 v70,2013-12-01 19:06:00,
2013-12-01 14:11:00,55.8,0.0,30.08,West,270,0.0,7.0,0,0.00,,,0.00,Weather View 32 v70,2013-12-01 19:11:00,
2013-12-01 14:16:00,55.9,0.0,30.03,North,0,2.0,7.0,0,0.00,,,0.00,Weather View 32 v70,2013-12-01 19:16:00,
2013-12-01 14:21:00,55.9,0.0,30.03,West,270,1.0,7.0,0,0.00,,,0.00,Weather View 32 v70,2013-12-01 19:21:00,
2013-12-01 14:26:00,55.9,0.0,30.02,West,270,0.0,7.0,0,0.00,,,0.00,Weather View 32 v70,2013-12-01 19:26:00,
2013-12-01 14:31:00,55.9,0.0,30.03,West,270,0.0,7.0,0,0.00,,,0.00,Weather View 32 v70,2013-12-01 19:31:00,
2013-12-01 14:36:00,55.9,0.0,30.03,West,270,0.0,6.0,0,0.00,,,0.00,Weather View 32 v70,2013-12-01 19:36:00,
2013-12-01 14:38:00,55.9,0.0,30.02,West,270,0.0,5.0,0,0.00,,,0.00,Weather View 32 v70,2013-12-01 19:38:00,
2013-12-01 14:43:00,55.8,0.0,30.03,West,270,0.0,5.0,0,0.00,,,0.00,Weather View 32 v70,2013-12-01 19:43:00,
2013-12-01 14:48:00,55.8,0.0,30.02,North,0,0.0,4.0,0,0.00,,,0.00,Weather View 32 v70,2013-12-01 19:48:00,
2013-12-01 14:53:00,55.6,0.0,30.02,North,0,1.0,4.0,0,0.00,,,0.00,Weather View 32 v70,2013-12-01 19:53:00,
2013-12-01 14:58:00,55.6,0.0,30.02,West,270,0.0,4.0,0,0.00,,,0.00,Weather View 32 v70,2013-12-01 19:58:00,
2013-12-01 15:03:00,55.4,0.0,30.01,North,0,0.0,4.0,0,0.00,,,0.00,Weather View 32 v70,2013-12-01 20:03:00,
2013-12-01 15:08:00,55.4,0.0,30.02,North,0,1.0,4.0,0,0.00,,,0.00,Weather View 32 v70,2013-12-01 20:08:00,
2013-12-01 15:13:00,55.2,0.0,30.01,West,270,0.0,4.0,0,0.00,,,0.00,Weather View 32 v70,2013-12-01 20:13:00,
2013-12-01 15:18:00,55.0,0.0,30.01,West,270,0.0,4.0,0,0.00,,,0.00,Weather View 32 v70,2013-12-01 20:18:00,
2013-12-01 15:23:00,54.5,0.0,30.01,West,270,0.0,4.0,0,0.00,,,0.00,Weather View 32 v70,2013-12-01 20:23:00,
2013-12-01 15:28:00,54.3,0.0,30.02,West,270,0.0,4.0,0,0.00,,,0.00,Weather View 32 v70,2013-12-01 20:28:00,
2013-12-01 15:33:00,53.8,0.0,30.02,West,270,0.0,4.0,0,0.00,,,0.00,Weather View 32 v70,2013-12-01 20:33:00,
2013-12-01 15:38:00,53.4,0.0,30.00,West,270,0.0,5.0,0,0.00,,,0.00,Weather View 32 v70,2013-12-01 20:38:00,
2013-12-01 15:43:00,53.2,0.0,30.04,West,270,0.0,5.0,0,0.00,,,0.00,Weather View 32 v70,2013-12-01 20:43:00,
2013-12-01 15:48:00,52.9,0.0,30.00,West,270,0.0,5.0,0,0.00,,,0.00,Weather View 32 v70,2013-12-01 20:48:00,
2013-12-01 15:53:00,52.9,0.0,30.03,West,270,0.0,5.0,0,0.00,,,0.00,Weather View 32 v70,2013-12-01 20:53:00,
2013-12-01 15:58:00,52.5,0.0,30.03,West,270,0.0,5.0,0,0.00,,,0.00,Weather View 32 v70,2013-12-01 20:58:00,
2013-12-01 16:03:00,52.3,0.0,30.01,North,0,2.0,5.0,0,0.00,,,0.00,Weather View 32 v70,2013-12-01 21:03:00,
2013-12-01 16:08:00,52.0,0.0,30.02,North,0,0.0,5.0,0,0.00,,,0.00,Weather View 32 v70,2013-12-01 21:08:00,
2013-12-01 16:13:00,51.1,0.0,30.01,West,270,0.0,5.0,0,0.00,,,0.00,Weather View 32 v70,2013-12-01 21:13:00,
2013-12-01 16:18:00,50.9,0.0,29.98,West,270,0.0,5.0,0,0.00,,,0.00,Weather View 32 v70,2013-12-01 21:18:00,
2013-12-01 16:23:00,50.5,0.0,29.99,West,270,0.0,5.0,0,0.00,,,0.00,Weather View 32 v70,2013-12-01 21:23:00,
2013-12-01 16:28:00,50.0,0.0,29.98,West,270,0.0,5.0,0,0.00,,,0.00,Weather View 32 v70,2013-12-01 21:28:00,
2013-12-01 16:33:00,49.8,0.0,29.98,West,270,0.0,5.0,0,0.00,,,0.00,Weather View 32 v70,2013-12-01 21:33:00,
2013-12-01 16:38:00,49.8,0.0,30.06,ESE,113,0.0,3.0,0,0.00,,,0.00,Weather View 32 v70,2013-12-01 21:38:00,
2013-12-01 16:43:00,49.5,0.0,30.08,ESE,113,0.0,3.0,0,0.00,,,0.00,Weather View 32 v70,2013-12-01 21:43:00,
2013-12-01 16:48:00,49.3,0.0,30.08,ESE,113,0.0,2.0,0,0.00,,,0.00,Weather View 32 v70,2013-12-01 21:48:00,
2013-12-01 16:53:00,48.7,0.0,30.07,ESE,113,0.0,2.0,0,0.00,,,0.00,Weather View 32 v70,2013-12-01 21:53:00,
2013-12-01 16:58:00,48.6,0.0,30.08,ESE,113,0.0,2.0,0,0.00,,,0.00,Weather View 32 v70,2013-12-01 21:58:00,
2013-12-01 17:03:00,47.8,0.0,30.07,ESE,113,0.0,2.0,0,0.00,,,0.00,Weather View 32 v70,2013-12-01 22:03:00,
2013-12-01 17:08:00,47.7,0.0,30.07,ESE,113,0.0,2.0,0,0.00,,,0.00,Weather View 32 v70,2013-12-01 22:08:00,
2013-12-01 17:13:00,47.3,0.0,30.08,ESE,113,0.0,1.0,0,0.00,,,0.00,Weather View 32 v70,2013-12-01 22:13:00,
2013-12-01 17:18:00,47.3,0.0,30.08,NW,315,0.0,1.0,0,0.00,,,0.00,Weather View 32 v70,2013-12-01 22:18:00,
2013-12-01 17:23:00,46.8,0.0,30.09,NW,315,0.0,1.0,0,0.00,,,0.00,Weather View 32 v70,2013-12-01 22:23:00,
2013-12-01 17:28:00,46.4,0.0,30.08,NW,315,0.0,1.0,0,0.00,,,0.00,Weather View 32 v70,2013-12-01 22:28:00,
2013-12-01 17:33:00,46.2,0.0,30.07,NW,315,0.0,1.0,0,0.00,,,0.00,Weather View 32 v70,2013-12-01 22:33:00,
2013-12-01 17:38:00,45.9,0.0,30.08,NW,315,0.0,0.0,0,0.00,,,0.00,Weather View 32 v70,2013-12-01 22:38:00,
2013-12-01 17:43:00,45.5,0.0,30.08,NW,315,0.0,0.0,0,0.00,,,0.00,Weather View 32 v70,2013-12-01 22:43:00,
2013-12-01 17:48:00,45.1,0.0,30.07,NW,315,0.0,0.0,0,0.00,,,0.00,Weather View 32 v70,2013-12-01 22:48:00,
2013-12-01 17:53:00,44.8,0.0,30.09,NW,315,0.0,0.0,0,0.00,,,0.00,Weather View 32 v70,2013-12-01 22:53:00,
2013-12-01 17:58:00,44.6,0.0,30.08,NW,315,0.0,0.0,0,0.00,,,0.00,Weather View 32 v70,2013-12-01 22:58:00,
2013-12-01 18:03:00,44.1,0.0,30.07,NW,315,0.0,0.0,0,0.00,,,0.00,Weather View 32 v70,2013-12-01 23:03:00,
2013-12-01 18:08:00,43.7,0.0,30.07,NW,315,0.0,0.0,0,0.00,,,0.00,Weather View 32 v70,2013-12-01 23:08:00,
2013-12-01 18:13:00,43.5,0.0,30.07,NW,315,0.0,0.0,0,0.00,,,0.00,Weather View 32 v70,2013-12-01 23:13:00,
2013-12-01 18:18:00,43.3,0.0,30.07,NW,315,0.0,0.0,0,0.00,,,0.00,Weather View 32 v70,2013-12-01 23:18:00,
2013-12-01 18:23:00,43.2,0.0,30.08,NW,315,0.0,0.0,0,0.00,,,0.00,Weather View 32 v70,2013-12-01 23:23:00,
2013-12-01 18:28:00,43.0,0.0,30.07,NW,315,0.0,0.0,0,0.00,,,0.00,Weather View 32 v70,2013-12-01 23:28:00,
2013-12-01 18:33:00,42.8,0.0,30.07,NW,315,0.0,0.0,0,0.00,,,0.00,Weather View 32 v70,2013-12-01 23:33:00,
2013-12-01 18:38:00,42.8,0.0,30.07,NW,315,0.0,0.0,0,0.00,,,0.00,Weather View 32 v70,2013-12-01 23:38:00,
2013-12-01 18:43:00,42.6,0.0,30.08,NW,315,0.0,0.0,0,0.00,,,0.00,Weather View 32 v70,2013-12-01 23:43:00,
2013-12-01 18:48:00,42.3,0.0,30.08,NW,315,0.0,0.0,0,0.00,,,0.00,Weather View 32 v70,2013-12-01 23:48:00,
2013-12-01 18:53:00,41.9,0.0,30.07,NW,315,0.0,0.0,0,0.00,,,0.00,Weather View 32 v70,2013-12-01 23:53:00,
2013-12-01 18:58:00,41.9,0.0,30.07,NW,315,0.0,0.0,0,0.00,,,0.00,Weather View 32 v70,2013-12-01 23:58:00,
2013-12-01 19:03:00,41.9,0.0,30.07,NW,315,0.0,0.0,0,0.00,,,0.00,Weather View 32 v70,2013-12-02 00:03:00,
2013-12-01 19:08:00,41.7,0.0,30.07,NW,315,0.0,0.0,0,0.00,,,0.00,Weather View 32 v70,2013-12-02 00:08:00,
2013-12-01 19:13:00,41.4,0.0,30.07,NW,315,0.0,0.0,0,0.00,,,0.00,Weather View 32 v70,2013-12-02 00:13:00,
2013-12-01 19:18:00,41.2,0.0,30.06,NW,315,0.0,2.0,0,0.00,,,0.00,Weather View 32 v70,2013-12-02 00:18:00,
2013-12-01 19:23:00,41.5,0.0,30.06,NW,315,0.0,2.0,0,0.00,,,0.00,Weather View 32 v70,2013-12-02 00:23:00,
2013-12-01 19:28:00,41.2,0.0,30.07,NW,315,0.0,2.0,0,0.00,,,0.00,Weather View 32 v70,2013-12-02 00:28:00,
2013-12-01 19:33:00,40.8,0.0,30.06,NW,315,0.0,2.0,0,0.00,,,0.00,Weather View 32 v70,2013-12-02 00:33:00,
2013-12-01 19:38:00,40.8,0.0,30.05,NW,315,0.0,2.0,0,0.00,,,0.00,Weather View 32 v70,2013-12-02 00:38:00,
2013-12-01 19:43:00,40.3,0.0,30.05,NW,315,0.0,2.0,0,0.00,,,0.00,Weather View 32 v70,2013-12-02 00:43:00,
2013-12-01 19:48:00,40.3,0.0,30.07,NW,315,0.0,2.0,0,0.00,,,0.00,Weather View 32 v70,2013-12-02 00:48:00,
2013-12-01 19:53:00,40.3,0.0,30.05,NW,315,0.0,2.0,0,0.00,,,0.00,Weather View 32 v70,2013-12-02 00:53:00,
2013-12-01 19:58:00,40.1,0.0,30.06,NW,315,0.0,2.0,0,0.00,,,0.00,Weather View 32 v70,2013-12-02 00:58:00,
2013-12-01 20:03:00,39.9,0.0,30.06,NW,315,0.0,2.0,0,0.00,,,0.00,Weather View 32 v70,2013-12-02 01:03:00,
2013-12-01 20:08:00,39.7,0.0,30.07,NW,315,0.0,2.0,0,0.00,,,0.00,Weather View 32 v70,2013-12-02 01:08:00,
2013-12-01 20:13:00,39.7,0.0,30.07,NW,315,0.0,2.0,0,0.00,,,0.00,Weather View 32 v70,2013-12-02 01:13:00,
2013-12-01 20:18:00,39.6,0.0,30.06,NW,315,0.0,1.0,0,0.00,,,0.00,Weather View 32 v70,2013-12-02 01:18:00,
2013-12-01 20:23:00,39.7,0.0,30.06,NW,315,0.0,1.0,0,0.00,,,0.00,Weather View 32 v70,2013-12-02 01:23:00,
2013-12-01 20:28:00,39.7,0.0,30.05,NW,315,0.0,1.0,0,0.00,,,0.00,Weather View 32 v70,2013-12-02 01:28:00,
2013-12-01 20:33:00,39.6,0.0,30.06,NW,315,0.0,1.0,0,0.00,,,0.00,Weather View 32 v70,2013-12-02 01:33:00,
2013-12-01 20:38:00,39.6,0.0,30.05,NW,315,0.0,1.0,0,0.00,,,0.00,Weather View 32 v70,2013-12-02 01:38:00,
2013-12-01 20:43:00,39.4,0.0,30.06,NW,315,0.0,1.0,0,0.00,,,0.00,Weather View 32 v70,2013-12-02 01:43:00,
2013-12-01 20:48:00,39.2,0.0,30.06,NW,315,0.0,1.0,0,0.00,,,0.00,Weather View 32 v70,2013-12-02 01:48:00,
2013-12-01 20:53:00,38.8,0.0,30.05,NW,315,0.0,1.0,0,0.00,,,0.00,Weather View 32 v70,2013-12-02 01:53:00,
2013-12-01 20:58:00,38.7,0.0,30.06,NW,315,0.0,0.0,0,0.00,,,0.00,Weather View 32 v70,2013-12-02 01:58:00,
2013-12-01 21:03:00,38.7,0.0,30.06,NW,315,0.0,0.0,0,0.00,,,0.00,Weather View 32 v70,2013-12-02 02:03:00,
2013-12-01 21:08:00,38.7,0.0,30.06,NW,315,0.0,0.0,0,0.00,,,0.00,Weather View 32 v70,2013-12-02 02:08:00,
2013-12-01 21:13:00,38.7,0.0,30.05,NW,315,0.0,0.0,0,0.00,,,0.00,Weather View 32 v70,2013-12-02 02:13:00,
2013-12-01 21:18:00,38.3,0.0,30.06,NW,315,0.0,0.0,0,0.00,,,0.00,Weather View 32 v70,2013-12-02 02:18:00,
2013-12-01 21:23:00,38.5,0.0,30.05,NW,315,0.0,0.0,0,0.00,,,0.00,Weather View 32 v70,2013-12-02 02:23:00,
2013-12-01 21:28:00,38.5,0.0,30.06,NW,315,0.0,0.0,0,0.00,,,0.00,Weather View 32 v70,2013-12-02 02:28:00,
2013-12-01 21:33:00,38.5,0.0,30.06,NW,315,0.0,1.0,0,0.00,,,0.00,Weather View 32 v70,2013-12-02 02:33:00,
2013-12-01 21:38:00,38.5,0.0,30.05,NW,315,0.0,1.0,0,0.00,,,0.00,Weather View 32 v70,2013-12-02 02:38:00,
2013-12-01 21:43:00,38.5,0.0,30.04,NW,315,0.0,1.0,0,0.00,,,0.00,Weather View 32 v70,2013-12-02 02:43:00,
2013-12-01 21:48:00,38.3,0.0,30.04,NW,315,0.0,1.0,0,0.00,,,0.00,Weather View 32 v70,2013-12-02 02:48:00,
2013-12-01 21:53:00,37.6,0.0,30.03,NW,315,0.0,2.0,0,0.00,,,0.00,Weather View 32 v70,2013-12-02 02:53:00,
2013-12-01 21:58:00,37.4,0.0,30.03,NW,315,0.0,2.0,0,0.00,,,0.00,Weather View 32 v70,2013-12-02 02:58:00,
2013-12-01 22:03:00,37.2,0.0,30.03,NW,315,0.0,2.0,0,0.00,,,0.00,Weather View 32 v70,2013-12-02 03:03:00,
2013-12-01 22:08:00,37.4,0.0,30.04,NW,315,0.0,2.0,0,0.00,,,0.00,Weather View 32 v70,2013-12-02 03:08:00,
2013-12-01 22:13:00,37.2,0.0,30.04,NW,315,0.0,2.0,0,0.00,,,0.00,Weather View 32 v70,2013-12-02 03:13:00,
2013-12-01 22:18:00,37.2,0.0,30.04,NW,315,0.0,2.0,0,0.00,,,0.00,Weather View 32 v70,2013-12-02 03:18:00,
2013-12-01 22:23:00,36.9,0.0,30.05,NW,315,0.0,2.0,0,0.00,,,0.00,Weather View 32 v70,2013-12-02 03:23:00,
2013-12-01 22:28:00,36.7,0.0,30.04,NW,315,0.0,2.0,0,0.00,,,0.00,Weather View 32 v70,2013-12-02 03:28:00,
2013-12-01 22:33:00,36.7,0.0,30.05,NW,315,0.0,2.0,0,0.00,,,0.00,Weather View 32 v70,2013-12-02 03:33:00,
2013-12-01 22:38:00,36.7,0.0,30.04,NW,315,0.0,2.0,0,0.00,,,0.00,Weather View 32 v70,2013-12-02 03:38:00,
2013-12-01 22:43:00,36.5,0.0,30.05,NW,315,0.0,2.0,0,0.00,,,0.00,Weather View 32 v70,2013-12-02 03:43:00,
2013-12-01 22:48:00,36.7,0.0,30.05,NW,315,0.0,2.0,0,0.00,,,0.00,Weather View 32 v70,2013-12-02 03:48:00,
2013-12-01 22:53:00,36.7,0.0,30.04,NW,315,0.0,2.0,0,0.00,,,0.00,Weather View 32 v70,2013-12-02 03:53:00,
2013-12-01 22:58:00,36.7,0.0,30.04,NW,315,0.0,2.0,0,0.00,,,0.00,Weather View 32 v70,2013-12-02 03:58:00,
2013-12-01 23:03:00,36.7,0.0,30.04,NW,315,0.0,2.0,0,0.00,,,0.00,Weather View 32 v70,2013-12-02 04:03:00,
2013-12-01 23:08:00,36.3,0.0,30.03,NW,315,0.0,1.0,0,0.00,,,0.00,Weather View 32 v70,2013-12-02 04:08:00,
2013-12-01 23:13:00,36.1,0.0,30.03,NW,315,0.0,1.0,0,0.00,,,0.00,Weather View 32 v70,2013-12-02 04:13:00,
2013-12-01 23:18:00,36.0,0.0,30.04,NW,315,0.0,1.0,0,0.00,,,0.00,Weather View 32 v70,2013-12-02 04:18:00,
2013-12-01 23:23:00,35.6,0.0,30.04,NW,315,0.0,1.0,0,0.00,,,0.00,Weather View 32 v70,2013-12-02 04:23:00,
2013-12-01 23:28:00,35.2,0.0,30.02,NW,315,0.0,1.0,0,0.00,,,0.00,Weather View 32 v70,2013-12-02 04:28:00,
2013-12-01 23:33:00,35.4,0.0,30.03,NW,315,0.0,1.0,0,0.00,,,0.00,Weather View 32 v70,2013-12-02 04:33:00,
2013-12-01 23:38:00,35.2,0.0,30.04,NW,315,0.0,1.0,0,0.00,,,0.00,Weather View 32 v70,2013-12-02 04:38:00,
2013-12-01 23:43:00,35.4,0.0,30.03,NW,315,0.0,1.0,0,0.00,,,0.00,Weather View 32 v70,2013-12-02 04:43:00,
2013-12-01 23:48:00,35.6,0.0,30.03,NW,315,0.0,1.0,0,0.00,,,0.00,Weather View 32 v70,2013-12-02 04:48:00,
2013-12-01 23:53:00,35.2,0.0,30.02,NW,315,0.0,1.0,0,0.00,,,0.00,Weather View 32 v70,2013-12-02 04:53:00,
2013-12-01 23:58:00,35.4,0.0,30.02,NW,315,0.0,1.0,0,0.00,,,0.00,Weather View 32 v70,2013-12-02 04:58:00,